sensor_id;sensor_type;location;lat;lon;timestamp;pressure;altitude;pressure_sealevel;temperature;humidity
69796;BME280;57073;45.650;9.612;2023-09-07T00:00:02;99745.88;;;21.01;48.41
69796;BME280;57073;45.650;9.612;2023-09-07T00:05:06;99743.94;;;21.01;47.79
69796;BME280;57073;45.650;9.612;2023-09-07T00:10:07;99745.41;;;20.94;48.73
69796;BME280;57073;45.650;9.612;2023-09-07T00:15:08;99741.09;;;20.87;48.36
69796;BME280;57073;45.650;9.612;2023-09-07T00:20:09;99741.75;;;20.79;48.84
69796;BME280;57073;45.650;9.612;2023-09-07T00:25:14;99744.03;;;20.72;49.57
69796;BME280;57073;45.650;9.612;2023-09-07T00:30:14;99742.84;;;20.78;49.09
69796;BME280;57073;45.650;9.612;2023-09-07T00:35:15;99743.00;;;20.68;49.43
69796;BME280;57073;45.650;9.612;2023-09-07T00:40:15;99742.66;;;20.69;49.82
69796;BME280;57073;45.650;9.612;2023-09-07T00:45:15;99743.00;;;20.68;49.32
69796;BME280;57073;45.650;9.612;2023-09-07T00:50:16;99741.88;;;20.69;49.21
69796;BME280;57073;45.650;9.612;2023-09-07T00:55:16;99742.53;;;20.61;49.69
69796;BME280;57073;45.650;9.612;2023-09-07T01:00:17;99741.41;;;20.62;49.75
69796;BME280;57073;45.650;9.612;2023-09-07T01:05:19;99742.69;;;20.45;50.18
69796;BME280;57073;45.650;9.612;2023-09-07T01:10:21;99747.03;;;20.51;49.95
69796;BME280;57073;45.650;9.612;2023-09-07T01:15:22;99740.25;;;20.44;50.34
69796;BME280;57073;45.650;9.612;2023-09-07T01:20:23;99746.84;;;20.43;50.60
69796;BME280;57073;45.650;9.612;2023-09-07T01:25:24;99745.38;;;20.50;50.38
69796;BME280;57073;45.650;9.612;2023-09-07T01:30:27;99742.47;;;20.42;50.30
69796;BME280;57073;45.650;9.612;2023-09-07T01:35:27;99747.47;;;20.34;50.49
69796;BME280;57073;45.650;9.612;2023-09-07T01:40:28;99748.59;;;20.33;50.06
69796;BME280;57073;45.650;9.612;2023-09-07T01:45:29;99742.66;;;20.26;50.60
69796;BME280;57073;45.650;9.612;2023-09-07T01:50:29;99740.81;;;20.16;50.38
69796;BME280;57073;45.650;9.612;2023-09-07T01:55:30;99735.34;;;20.16;50.81
69796;BME280;57073;45.650;9.612;2023-09-07T02:00:36;99739.56;;;20.04;51.33
69796;BME280;57073;45.650;9.612;2023-09-07T02:05:36;99728.34;;;20.05;50.95
69796;BME280;57073;45.650;9.612;2023-09-07T02:10:37;99741.53;;;19.98;51.42
69796;BME280;57073;45.650;9.612;2023-09-07T02:15:38;99732.78;;;19.96;51.50
69796;BME280;57073;45.650;9.612;2023-09-07T02:20:39;99739.84;;;20.02;50.75
69796;BME280;57073;45.650;9.612;2023-09-07T02:25:40;99733.31;;;19.98;51.36
69796;BME280;57073;45.650;9.612;2023-09-07T02:30:41;99737.19;;;19.97;51.79
69796;BME280;57073;45.650;9.612;2023-09-07T02:35:41;99748.06;;;20.02;51.11
69796;BME280;57073;45.650;9.612;2023-09-07T02:40:44;99741.47;;;20.03;51.10
69796;BME280;57073;45.650;9.612;2023-09-07T02:45:45;99739.84;;;20.02;51.20
69796;BME280;57073;45.650;9.612;2023-09-07T02:50:45;99745.66;;;19.95;52.01
69796;BME280;57073;45.650;9.612;2023-09-07T02:55:49;99739.13;;;19.91;51.37
69796;BME280;57073;45.650;9.612;2023-09-07T03:00:49;99755.94;;;19.80;51.83
69796;BME280;57073;45.650;9.612;2023-09-07T03:05:49;99745.34;;;19.68;52.07
69796;BME280;57073;45.650;9.612;2023-09-07T03:10:50;99753.06;;;19.61;51.74
69796;BME280;57073;45.650;9.612;2023-09-07T03:15:53;99749.03;;;19.53;53.01
69796;BME280;57073;45.650;9.612;2023-09-07T03:20:55;99745.69;;;19.61;52.37
69796;BME280;57073;45.650;9.612;2023-09-07T03:25:56;99754.75;;;19.56;52.77
69796;BME280;57073;45.650;9.612;2023-09-07T03:30:57;99746.81;;;19.55;52.30
69796;BME280;57073;45.650;9.612;2023-09-07T03:35:58;99742.75;;;19.52;52.78
69796;BME280;57073;45.650;9.612;2023-09-07T03:40:59;99750.19;;;19.47;52.88
69796;BME280;57073;45.650;9.612;2023-09-07T03:45:59;99744.78;;;19.36;53.21
69796;BME280;57073;45.650;9.612;2023-09-07T03:50:59;99746.66;;;19.46;52.70
69796;BME280;57073;45.650;9.612;2023-09-07T03:56:02;99738.53;;;19.31;53.26
69796;BME280;57073;45.650;9.612;2023-09-07T04:01:04;99743.19;;;19.25;53.53
69796;BME280;57073;45.650;9.612;2023-09-07T04:06:04;99738.00;;;19.29;53.23
69796;BME280;57073;45.650;9.612;2023-09-07T04:11:05;99741.03;;;19.27;53.42
69796;BME280;57073;45.650;9.612;2023-09-07T04:16:05;99735.56;;;19.27;53.59
69796;BME280;57073;45.650;9.612;2023-09-07T04:21:09;99730.66;;;19.19;53.45
69796;BME280;57073;45.650;9.612;2023-09-07T04:26:10;99733.63;;;19.23;53.43
69796;BME280;57073;45.650;9.612;2023-09-07T04:31:11;99733.91;;;19.26;53.55
69796;BME280;57073;45.650;9.612;2023-09-07T04:36:13;99726.84;;;19.15;53.84
69796;BME280;57073;45.650;9.612;2023-09-07T04:41:14;99729.00;;;19.23;53.67
69796;BME280;57073;45.650;9.612;2023-09-07T04:46:14;99739.09;;;19.23;53.50
69796;BME280;57073;45.650;9.612;2023-09-07T04:51:15;99736.06;;;19.24;53.28
69796;BME280;57073;45.650;9.612;2023-09-07T04:56:15;99748.72;;;19.15;53.85
69796;BME280;57073;45.650;9.612;2023-09-07T05:01:16;99751.97;;;19.17;53.88
69796;BME280;57073;45.650;9.612;2023-09-07T05:06:16;99751.69;;;19.24;53.39
69796;BME280;57073;45.650;9.612;2023-09-07T05:11:17;99752.56;;;19.14;53.81
69796;BME280;57073;45.650;9.612;2023-09-07T05:16:17;99755.81;;;19.21;53.22
69796;BME280;57073;45.650;9.612;2023-09-07T05:21:17;99752.19;;;19.26;53.68
69796;BME280;57073;45.650;9.612;2023-09-07T05:26:22;99757.63;;;19.41;52.85
69796;BME280;57073;45.650;9.612;2023-09-07T05:31:24;99761.69;;;19.44;53.60
69796;BME280;57073;45.650;9.612;2023-09-07T05:36:24;99761.59;;;19.59;53.16
69796;BME280;57073;45.650;9.612;2023-09-07T05:41:24;99770.78;;;19.73;52.75
69796;BME280;57073;45.650;9.612;2023-09-07T05:46:25;99766.56;;;19.86;52.62
69796;BME280;57073;45.650;9.612;2023-09-07T05:51:25;99777.78;;;19.85;52.75
69796;BME280;57073;45.650;9.612;2023-09-07T05:56:25;99774.09;;;20.00;52.01
69796;BME280;57073;45.650;9.612;2023-09-07T06:01:26;99766.69;;;20.05;51.62
69796;BME280;57073;45.650;9.612;2023-09-07T06:06:26;99771.47;;;20.19;51.28
69796;BME280;57073;45.650;9.612;2023-09-07T06:11:27;99779.78;;;20.38;51.09
69796;BME280;57073;45.650;9.612;2023-09-07T06:16:28;99776.09;;;20.71;50.75
69796;BME280;57073;45.650;9.612;2023-09-07T06:21:28;99782.03;;;21.22;50.13
69796;BME280;57073;45.650;9.612;2023-09-07T06:26:29;99784.72;;;21.65;49.37
69796;BME280;57073;45.650;9.612;2023-09-07T06:31:29;99791.47;;;22.05;48.33
69796;BME280;57073;45.650;9.612;2023-09-07T06:36:30;99785.69;;;22.21;47.65
69796;BME280;57073;45.650;9.612;2023-09-07T06:41:31;99788.81;;;22.75;47.06
69796;BME280;57073;45.650;9.612;2023-09-07T06:46:31;99786.56;;;22.77;45.34
69796;BME280;57073;45.650;9.612;2023-09-07T06:51:32;99785.47;;;23.28;45.90
69796;BME280;57073;45.650;9.612;2023-09-07T06:56:32;99794.50;;;23.43;45.12
69796;BME280;57073;45.650;9.612;2023-09-07T07:01:34;99798.19;;;23.74;44.82
69796;BME280;57073;45.650;9.612;2023-09-07T07:06:35;99806.53;;;23.83;44.74
69796;BME280;57073;45.650;9.612;2023-09-07T07:11:36;99795.84;;;23.90;42.62
69796;BME280;57073;45.650;9.612;2023-09-07T07:16:37;99801.91;;;24.24;43.98
69796;BME280;57073;45.650;9.612;2023-09-07T07:21:37;99799.63;;;24.57;42.56
69796;BME280;57073;45.650;9.612;2023-09-07T07:26:37;99804.22;;;24.70;39.96
69796;BME280;57073;45.650;9.612;2023-09-07T07:31:38;99806.22;;;24.87;41.28
69796;BME280;57073;45.650;9.612;2023-09-07T07:36:38;99807.78;;;25.37;41.08
69796;BME280;57073;45.650;9.612;2023-09-07T07:41:39;99816.06;;;25.90;40.67
69796;BME280;57073;45.650;9.612;2023-09-07T07:46:39;99812.97;;;26.17;39.85
69796;BME280;57073;45.650;9.612;2023-09-07T07:51:39;99814.25;;;26.67;38.42
69796;BME280;57073;45.650;9.612;2023-09-07T07:56:40;99815.50;;;26.78;36.33
69796;BME280;57073;45.650;9.612;2023-09-07T08:01:40;99811.16;;;26.98;35.83
69796;BME280;57073;45.650;9.612;2023-09-07T08:06:41;99801.25;;;27.18;35.45
69796;BME280;57073;45.650;9.612;2023-09-07T08:11:41;99806.72;;;27.36;34.91
69796;BME280;57073;45.650;9.612;2023-09-07T08:16:42;99814.56;;;27.55;34.02
69796;BME280;57073;45.650;9.612;2023-09-07T08:21:42;99814.22;;;27.90;35.36
69796;BME280;57073;45.650;9.612;2023-09-07T08:26:42;99823.69;;;28.10;34.63
69796;BME280;57073;45.650;9.612;2023-09-07T08:31:43;99822.63;;;28.14;33.56
69796;BME280;57073;45.650;9.612;2023-09-07T08:36:45;99815.03;;;28.11;33.72
69796;BME280;57073;45.650;9.612;2023-09-07T08:41:47;99819.66;;;28.20;33.72
69796;BME280;57073;45.650;9.612;2023-09-07T08:46:49;99811.78;;;28.09;32.09
69796;BME280;57073;45.650;9.612;2023-09-07T08:51:50;99813.47;;;27.68;31.76
69796;BME280;57073;45.650;9.612;2023-09-07T08:56:53;99819.53;;;27.83;33.12
69796;BME280;57073;45.650;9.612;2023-09-07T09:01:57;99818.16;;;27.89;33.12
69796;BME280;57073;45.650;9.612;2023-09-07T09:06:58;99821.03;;;27.59;33.43
69796;BME280;57073;45.650;9.612;2023-09-07T09:12:09;99816.69;;;27.70;33.07
69796;BME280;57073;45.650;9.612;2023-09-07T09:17:14;99798.34;;;27.15;33.16
69796;BME280;57073;45.650;9.612;2023-09-07T09:22:14;99818.09;;;27.76;33.33
69796;BME280;57073;45.650;9.612;2023-09-07T09:27:15;99806.25;;;27.88;33.46
69796;BME280;57073;45.650;9.612;2023-09-07T09:32:16;99802.13;;;27.61;34.24
69796;BME280;57073;45.650;9.612;2023-09-07T09:37:16;99803.75;;;27.41;34.14
69796;BME280;57073;45.650;9.612;2023-09-07T09:42:16;99803.75;;;27.62;34.22
69796;BME280;57073;45.650;9.612;2023-09-07T09:47:18;99792.44;;;27.67;34.21
69796;BME280;57073;45.650;9.612;2023-09-07T09:52:20;99783.91;;;27.72;33.43
69796;BME280;57073;45.650;9.612;2023-09-07T09:57:22;99784.94;;;27.68;34.61
69796;BME280;57073;45.650;9.612;2023-09-07T10:02:22;99785.38;;;27.57;34.05
69796;BME280;57073;45.650;9.612;2023-09-07T10:07:39;99779.94;;;27.61;34.71
69796;BME280;57073;45.650;9.612;2023-09-07T10:12:45;99771.59;;;27.49;34.75
69796;BME280;57073;45.650;9.612;2023-09-07T10:17:45;99768.72;;;26.94;34.31
69796;BME280;57073;45.650;9.612;2023-09-07T10:22:46;99767.13;;;26.93;34.06
69796;BME280;57073;45.650;9.612;2023-09-07T10:27:46;99758.53;;;26.86;34.93
69796;BME280;57073;45.650;9.612;2023-09-07T10:32:47;99761.16;;;26.83;34.89
69796;BME280;57073;45.650;9.612;2023-09-07T10:37:48;99763.03;;;26.61;35.92
69796;BME280;57073;45.650;9.612;2023-09-07T10:42:48;99757.19;;;26.62;35.79
69796;BME280;57073;45.650;9.612;2023-09-07T10:47:48;99751.97;;;26.61;34.60
69796;BME280;57073;45.650;9.612;2023-09-07T10:52:49;99754.41;;;26.62;35.79
69796;BME280;57073;45.650;9.612;2023-09-07T10:57:49;99750.84;;;26.06;36.30
69796;BME280;57073;45.650;9.612;2023-09-07T11:02:49;99750.38;;;26.04;35.73
69796;BME280;57073;45.650;9.612;2023-09-07T11:07:50;99741.53;;;25.72;35.16
69796;BME280;57073;45.650;9.612;2023-09-07T11:12:51;99730.81;;;25.71;35.91
69796;BME280;57073;45.650;9.612;2023-09-07T11:17:51;99724.28;;;25.75;36.88
69796;BME280;57073;45.650;9.612;2023-09-07T11:22:53;99729.03;;;25.31;36.06
69796;BME280;57073;45.650;9.612;2023-09-07T11:27:53;99717.34;;;25.17;36.07
69796;BME280;57073;45.650;9.612;2023-09-07T11:33:02;99718.19;;;25.61;35.70
69796;BME280;57073;45.650;9.612;2023-09-07T11:38:03;99712.19;;;26.06;36.96
69796;BME280;57073;45.650;9.612;2023-09-07T11:43:05;99702.50;;;25.82;36.55
69796;BME280;57073;45.650;9.612;2023-09-07T11:48:05;99697.22;;;26.07;36.19
69796;BME280;57073;45.650;9.612;2023-09-07T11:53:06;99701.53;;;26.34;36.52
69796;BME280;57073;45.650;9.612;2023-09-07T11:58:07;99705.19;;;26.09;37.02
69796;BME280;57073;45.650;9.612;2023-09-07T12:03:07;99695.84;;;25.83;36.52
69796;BME280;57073;45.650;9.612;2023-09-07T12:08:08;99697.69;;;25.62;36.23
69796;BME280;57073;45.650;9.612;2023-09-07T12:13:08;99686.44;;;25.84;36.34
69796;BME280;57073;45.650;9.612;2023-09-07T12:18:09;99686.16;;;25.51;36.56
69796;BME280;57073;45.650;9.612;2023-09-07T12:23:09;99670.38;;;25.52;36.58
69796;BME280;57073;45.650;9.612;2023-09-07T12:28:09;99664.06;;;25.60;36.82
69796;BME280;57073;45.650;9.612;2023-09-07T12:33:10;99660.34;;;25.56;36.63
69796;BME280;57073;45.650;9.612;2023-09-07T12:38:10;99656.53;;;25.86;36.26
69796;BME280;57073;45.650;9.612;2023-09-07T12:43:15;99647.19;;;26.00;36.57
69796;BME280;57073;45.650;9.612;2023-09-07T12:48:15;99649.22;;;26.20;36.13
69796;BME280;57073;45.650;9.612;2023-09-07T12:53:16;99649.91;;;26.17;36.36
69796;BME280;57073;45.650;9.612;2023-09-07T12:58:16;99637.59;;;25.50;36.54
69796;BME280;57073;45.650;9.612;2023-09-07T13:03:17;99643.25;;;25.71;36.49
69796;BME280;57073;45.650;9.612;2023-09-07T13:08:18;99633.28;;;25.87;36.68
69796;BME280;57073;45.650;9.612;2023-09-07T13:13:18;99629.09;;;25.81;36.92
69796;BME280;57073;45.650;9.612;2023-09-07T13:18:18;99631.41;;;26.00;36.05
69796;BME280;57073;45.650;9.612;2023-09-07T13:23:19;99616.94;;;25.74;35.55
69796;BME280;57073;45.650;9.612;2023-09-07T13:28:19;99614.22;;;25.95;35.73
69796;BME280;57073;45.650;9.612;2023-09-07T13:33:20;99614.63;;;25.84;36.15
69796;BME280;57073;45.650;9.612;2023-09-07T13:38:20;99609.00;;;26.02;36.33
69796;BME280;57073;45.650;9.612;2023-09-07T13:43:21;99607.00;;;26.11;36.71
69796;BME280;57073;45.650;9.612;2023-09-07T13:48:21;99603.13;;;26.33;37.13
69796;BME280;57073;45.650;9.612;2023-09-07T13:53:22;99606.94;;;25.90;35.90
69796;BME280;57073;45.650;9.612;2023-09-07T13:58:22;99596.19;;;26.27;36.15
69796;BME280;57073;45.650;9.612;2023-09-07T14:03:22;99594.00;;;26.12;36.45
69796;BME280;57073;45.650;9.612;2023-09-07T14:08:23;99599.25;;;26.04;36.42
69796;BME280;57073;45.650;9.612;2023-09-07T14:13:24;99595.19;;;26.02;36.00
69796;BME280;57073;45.650;9.612;2023-09-07T14:18:24;99599.56;;;26.03;36.65
69796;BME280;57073;45.650;9.612;2023-09-07T14:23:25;99598.34;;;26.21;35.58
69796;BME280;57073;45.650;9.612;2023-09-07T14:28:28;99588.03;;;26.31;35.60
69796;BME280;57073;45.650;9.612;2023-09-07T14:33:28;99592.03;;;26.21;35.96
69796;BME280;57073;45.650;9.612;2023-09-07T14:38:29;99596.84;;;26.24;36.16
69796;BME280;57073;45.650;9.612;2023-09-07T14:43:29;99587.19;;;26.39;36.28
69796;BME280;57073;45.650;9.612;2023-09-07T14:48:30;99588.03;;;26.31;35.80
69796;BME280;57073;45.650;9.612;2023-09-07T14:53:30;99590.53;;;26.23;35.89
69796;BME280;57073;45.650;9.612;2023-09-07T14:58:30;99582.41;;;26.48;35.91
69796;BME280;57073;45.650;9.612;2023-09-07T15:03:31;99575.84;;;26.32;35.57
69796;BME280;57073;45.650;9.612;2023-09-07T15:08:31;99576.50;;;26.29;35.81
69796;BME280;57073;45.650;9.612;2023-09-07T15:13:32;99573.41;;;26.30;36.06
69796;BME280;57073;45.650;9.612;2023-09-07T15:18:32;99571.66;;;26.25;35.47
69796;BME280;57073;45.650;9.612;2023-09-07T15:23:32;99559.53;;;26.39;35.67
69796;BME280;57073;45.650;9.612;2023-09-07T15:28:33;99571.31;;;26.27;36.42
69796;BME280;57073;45.650;9.612;2023-09-07T15:33:33;99567.19;;;26.33;35.58
69796;BME280;57073;45.650;9.612;2023-09-07T15:38:35;99562.81;;;26.02;36.32
69796;BME280;57073;45.650;9.612;2023-09-07T15:43:35;99559.88;;;26.08;36.28
69796;BME280;57073;45.650;9.612;2023-09-07T15:48:35;99572.38;;;26.14;35.99
69796;BME280;57073;45.650;9.612;2023-09-07T15:53:36;99560.41;;;26.01;36.05
69796;BME280;57073;45.650;9.612;2023-09-07T15:58:36;99570.38;;;26.23;35.84
69796;BME280;57073;45.650;9.612;2023-09-07T16:03:37;99565.59;;;26.32;35.59
69796;BME280;57073;45.650;9.612;2023-09-07T16:08:37;99564.28;;;26.30;35.16
69796;BME280;57073;45.650;9.612;2023-09-07T16:13:38;99561.00;;;26.36;36.02
69796;BME280;57073;45.650;9.612;2023-09-07T16:18:40;99562.97;;;26.36;35.84
69796;BME280;57073;45.650;9.612;2023-09-07T16:23:42;99563.19;;;26.01;35.28
69796;BME280;57073;45.650;9.612;2023-09-07T16:28:43;99562.50;;;26.04;35.85
69796;BME280;57073;45.650;9.612;2023-09-07T16:33:43;99563.19;;;26.01;35.92
69796;BME280;57073;45.650;9.612;2023-09-07T16:38:44;99569.06;;;26.20;35.43
69796;BME280;57073;45.650;9.612;2023-09-07T16:43:44;99565.31;;;26.25;35.80
69796;BME280;57073;45.650;9.612;2023-09-07T16:48:44;99548.13;;;26.19;35.72
69796;BME280;57073;45.650;9.612;2023-09-07T16:53:45;99570.25;;;26.11;35.21
69796;BME280;57073;45.650;9.612;2023-09-07T16:58:45;99567.72;;;25.97;35.09
69796;BME280;57073;45.650;9.612;2023-09-07T17:03:46;99559.44;;;25.97;35.06
69796;BME280;57073;45.650;9.612;2023-09-07T17:08:46;99565.59;;;26.02;35.24
69796;BME280;57073;45.650;9.612;2023-09-07T17:13:46;99565.03;;;25.88;35.07
69796;BME280;57073;45.650;9.612;2023-09-07T17:18:47;99567.59;;;25.93;35.05
69796;BME280;57073;45.650;9.612;2023-09-07T17:23:47;99567.25;;;25.95;35.26
69796;BME280;57073;45.650;9.612;2023-09-07T17:28:49;99569.78;;;25.79;35.45
69796;BME280;57073;45.650;9.612;2023-09-07T17:33:52;99572.03;;;25.85;35.42
69796;BME280;57073;45.650;9.612;2023-09-07T17:38:53;99571.59;;;25.75;35.08
69796;BME280;57073;45.650;9.612;2023-09-07T17:43:56;99578.59;;;25.72;35.56
69796;BME280;57073;45.650;9.612;2023-09-07T17:48:57;99585.91;;;25.68;35.40
69796;BME280;57073;45.650;9.612;2023-09-07T17:53:57;99583.34;;;25.63;35.39
69796;BME280;57073;45.650;9.612;2023-09-07T17:58:58;99592.59;;;25.67;35.89
69796;BME280;57073;45.650;9.612;2023-09-07T18:03:58;99597.63;;;25.65;35.56
69796;BME280;57073;45.650;9.612;2023-09-07T18:08:58;99593.72;;;25.66;35.41
69796;BME280;57073;45.650;9.612;2023-09-07T18:13:59;99610.81;;;25.59;36.58
69796;BME280;57073;45.650;9.612;2023-09-07T18:19:00;99609.97;;;25.59;36.35
69796;BME280;57073;45.650;9.612;2023-09-07T18:24:00;99609.66;;;25.52;36.64
69796;BME280;57073;45.650;9.612;2023-09-07T18:29:00;99620.91;;;25.46;36.27
69796;BME280;57073;45.650;9.612;2023-09-07T18:34:01;99626.91;;;25.31;37.40
69796;BME280;57073;45.650;9.612;2023-09-07T18:39:01;99637.81;;;25.27;37.09
69796;BME280;57073;45.650;9.612;2023-09-07T18:44:02;99641.41;;;25.19;37.74
69796;BME280;57073;45.650;9.612;2023-09-07T18:49:02;99648.06;;;25.09;38.66
69796;BME280;57073;45.650;9.612;2023-09-07T18:54:03;99654.53;;;25.14;39.15
69796;BME280;57073;45.650;9.612;2023-09-07T18:59:03;99652.13;;;25.03;40.48
69796;BME280;57073;45.650;9.612;2023-09-07T19:04:09;99659.91;;;24.92;41.79
69796;BME280;57073;45.650;9.612;2023-09-07T19:09:10;99660.34;;;24.86;42.40
69796;BME280;57073;45.650;9.612;2023-09-07T19:14:10;99659.53;;;24.77;42.70
69796;BME280;57073;45.650;9.612;2023-09-07T19:19:11;99656.59;;;24.64;41.81
69796;BME280;57073;45.650;9.612;2023-09-07T19:24:11;99672.03;;;24.65;41.89
69796;BME280;57073;45.650;9.612;2023-09-07T19:29:11;99668.47;;;24.65;42.21
69796;BME280;57073;45.650;9.612;2023-09-07T19:34:12;99683.69;;;24.62;43.36
69796;BME280;57073;45.650;9.612;2023-09-07T19:39:13;99689.22;;;24.62;42.58
69796;BME280;57073;45.650;9.612;2023-09-07T19:44:13;99692.78;;;24.54;43.13
69796;BME280;57073;45.650;9.612;2023-09-07T19:49:15;99702.97;;;24.53;42.60
69796;BME280;57073;45.650;9.612;2023-09-07T19:54:15;99703.81;;;24.54;42.44
69796;BME280;57073;45.650;9.612;2023-09-07T19:59:16;99705.38;;;24.46;43.31
69796;BME280;57073;45.650;9.612;2023-09-07T20:04:16;99709.09;;;24.42;43.67
69796;BME280;57073;45.650;9.612;2023-09-07T20:09:17;99712.50;;;24.39;43.65
69796;BME280;57073;45.650;9.612;2023-09-07T20:14:18;99723.16;;;24.31;43.56
69796;BME280;57073;45.650;9.612;2023-09-07T20:19:20;99716.28;;;24.20;43.53
69796;BME280;57073;45.650;9.612;2023-09-07T20:24:20;99724.44;;;23.94;45.13
69796;BME280;57073;45.650;9.612;2023-09-07T20:29:20;99725.94;;;23.77;45.74
69796;BME280;57073;45.650;9.612;2023-09-07T20:34:21;99732.53;;;23.68;46.71
69796;BME280;57073;45.650;9.612;2023-09-07T20:39:21;99740.03;;;23.53;46.93
69796;BME280;57073;45.650;9.612;2023-09-07T20:44:21;99739.16;;;23.44;47.16
69796;BME280;57073;45.650;9.612;2023-09-07T20:49:22;99744.28;;;23.37;46.63
69796;BME280;57073;45.650;9.612;2023-09-07T20:54:22;99749.78;;;23.37;47.04
69796;BME280;57073;45.650;9.612;2023-09-07T20:59:22;99752.25;;;23.25;47.23
69796;BME280;57073;45.650;9.612;2023-09-07T21:04:23;99749.41;;;23.30;46.75
69796;BME280;57073;45.650;9.612;2023-09-07T21:09:23;99747.41;;;23.22;46.53
69796;BME280;57073;45.650;9.612;2023-09-07T21:14:23;99742.75;;;23.08;47.66
69796;BME280;57073;45.650;9.612;2023-09-07T21:19:24;99748.75;;;23.10;47.26
69796;BME280;57073;45.650;9.612;2023-09-07T21:24:24;99748.50;;;22.98;46.97
69796;BME280;57073;45.650;9.612;2023-09-07T21:29:25;99748.84;;;23.05;47.36
69796;BME280;57073;45.650;9.612;2023-09-07T21:34:25;99757.66;;;22.93;47.16
69796;BME280;57073;45.650;9.612;2023-09-07T21:39:25;99760.78;;;22.87;47.39
69796;BME280;57073;45.650;9.612;2023-09-07T21:44:26;99753.97;;;22.84;47.38
69796;BME280;57073;45.650;9.612;2023-09-07T21:49:26;99754.88;;;22.79;47.30
69796;BME280;57073;45.650;9.612;2023-09-07T21:54:27;99756.63;;;22.75;47.96
69796;BME280;57073;45.650;9.612;2023-09-07T21:59:27;99753.97;;;22.70;48.56
69796;BME280;57073;45.650;9.612;2023-09-07T22:04:28;99751.13;;;22.61;48.69
69796;BME280;57073;45.650;9.612;2023-09-07T22:09:28;99757.06;;;22.55;48.86
69796;BME280;57073;45.650;9.612;2023-09-07T22:14:28;99757.47;;;22.62;49.02
69796;BME280;57073;45.650;9.612;2023-09-07T22:19:29;99759.09;;;22.49;48.43
69796;BME280;57073;45.650;9.612;2023-09-07T22:24:29;99754.59;;;22.53;48.51
69796;BME280;57073;45.650;9.612;2023-09-07T22:29:30;99739.53;;;22.51;48.80
69796;BME280;57073;45.650;9.612;2023-09-07T22:34:30;99755.59;;;22.43;48.33
69796;BME280;57073;45.650;9.612;2023-09-07T22:39:34;99746.44;;;22.34;49.31
69796;BME280;57073;45.650;9.612;2023-09-07T22:44:35;99744.84;;;22.33;49.06
69796;BME280;57073;45.650;9.612;2023-09-07T22:49:35;99746.88;;;22.28;48.49
69796;BME280;57073;45.650;9.612;2023-09-07T22:54:35;99756.28;;;22.21;48.23
69796;BME280;57073;45.650;9.612;2023-09-07T22:59:36;99760.47;;;22.19;48.13
69796;BME280;57073;45.650;9.612;2023-09-07T23:04:38;99763.38;;;22.09;48.82
69796;BME280;57073;45.650;9.612;2023-09-07T23:09:38;99761.75;;;22.08;48.38
69796;BME280;57073;45.650;9.612;2023-09-07T23:14:42;99761.34;;;22.00;48.23
69796;BME280;57073;45.650;9.612;2023-09-07T23:19:42;99764.91;;;22.01;48.77
69796;BME280;57073;45.650;9.612;2023-09-07T23:24:43;99764.41;;;22.13;47.63
69796;BME280;57073;45.650;9.612;2023-09-07T23:29:43;99770.59;;;22.04;48.87
69796;BME280;57073;45.650;9.612;2023-09-07T23:34:43;99764.19;;;21.95;49.03
69796;BME280;57073;45.650;9.612;2023-09-07T23:39:44;99765.69;;;22.01;48.30
69796;BME280;57073;45.650;9.612;2023-09-07T23:44:44;99761.44;;;21.95;48.34
69796;BME280;57073;45.650;9.612;2023-09-07T23:49:44;99754.81;;;21.96;48.18
69796;BME280;57073;45.650;9.612;2023-09-07T23:54:45;99753.91;;;22.01;47.95
69796;BME280;57073;45.650;9.612;2023-09-07T23:59:45;99754.38;;;21.89;48.65
